首页
METAR-TAF:

METAR-TAF

机场 :

安德森空军基地, 關島, 美国

纬度: 13-35N, 经度: 144-56E, 海拔: 187米

当前天气观测

该预报发布于1小时和1分钟前的10:55 UTC
风速10节,风向东转东南
温度 27°C
湿度 89%
气压 1013 hPa
能見度: 16.1公里
阴天层高于16000英尺

METAR: PGUA 181055Z AUTO 11010KT 10SM OVC160 27/25 A2991 RMK AO2 SLP119 T02740246 $

时间: 21:56 (11:56 UTC)

预报

该预报发布于1小时和56分钟前的10:00 UTC
预报有效从18日的 10点(UTC)到 19日的 16点(UTC)
风速9节,风向
能见度10公里或以上
多云层高于1500英尺
短暂存在
从 18日的 13点(UTC)到 18日的 20点(UTC)
风速15节,风向东转东南,有时为20节阵风
能見度: 4800
多云层高于800英尺
小阵雨,

TAF: PGUA 181000Z 1810/1916 09009KT 9999 BKN015 QNH2983INS TEMPO 1813/1820 11015G20KT 4800 -SHRA BKN008 TX30/1811Z TN24/1817Z

超过4000个机场的气象观测和天气预报(METAR&TAF报告)。

可查询的气象台以黄色和红色小点在地图上表示。

将鼠标移到小点上方,可查看气象台名称。

然后点击查看天气观测和预报。

如需切换地图:点击带黑十字的绿色按钮放大地图;点击带横线的绿色按钮缩小地图;或者点击绿色箭头查看邻近地区的地图。


METAR-TAF: